createdAt,value
2018-08-18T00:04:48.542Z,13.83
2018-08-18T00:09:52.065Z,14.43
2018-08-18T00:14:55.512Z,15.70
2018-08-18T00:19:58.949Z,13.95
2018-08-18T00:25:02.438Z,16.12
2018-08-18T00:30:12.468Z,14.03
2018-08-18T00:35:15.919Z,16.57
2018-08-18T00:40:19.360Z,16.27
2018-08-18T00:45:22.814Z,15.80
2018-08-18T00:50:37.705Z,14.10
2018-08-18T00:55:41.193Z,16.70
2018-08-18T01:00:48.881Z,15.85
2018-08-18T01:05:52.442Z,13.78
2018-08-18T01:10:55.988Z,18.25
2018-08-18T01:15:59.365Z,12.90
2018-08-18T01:21:02.848Z,17.40
2018-08-18T01:26:06.698Z,14.20
2018-08-18T01:31:19.373Z,16.87
2018-08-18T01:36:22.823Z,16.87
2018-08-18T01:41:26.361Z,16.00
2018-08-18T01:46:29.801Z,15.50
2018-08-18T01:51:33.264Z,19.12
2018-08-18T01:56:36.722Z,18.48
2018-08-18T02:01:40.197Z,17.80
2018-08-18T02:06:43.789Z,17.42
2018-08-18T02:11:50.980Z,19.20
2018-08-18T02:17:04.365Z,17.40
2018-08-18T02:22:07.841Z,17.62
2018-08-18T02:27:11.494Z,17.90
2018-08-18T02:32:26.302Z,18.25
2018-08-18T02:37:30.529Z,16.50
2018-08-18T02:42:33.999Z,18.73
2018-08-18T02:47:37.469Z,16.67
2018-08-18T02:52:40.913Z,19.60
2018-08-18T02:57:44.748Z,21.00
2018-08-18T03:02:48.336Z,19.00
2018-08-18T03:07:52.944Z,19.55
2018-08-18T03:12:57.504Z,20.60
2018-08-18T03:18:01.018Z,19.30
2018-08-18T03:23:04.549Z,19.75
2018-08-18T03:28:08.049Z,20.70
2018-08-18T03:33:11.525Z,21.65
2018-08-18T03:38:17.839Z,20.60
2018-08-18T03:43:21.308Z,21.73
2018-08-18T03:48:24.724Z,20.60
2018-08-18T03:53:28.164Z,23.18
2018-08-18T03:58:41.648Z,20.88
2018-08-18T04:03:45.428Z,19.92
2018-08-18T04:08:48.872Z,23.40
2018-08-18T04:13:52.348Z,22.65
2018-08-18T04:18:59.655Z,23.90
2018-08-18T04:24:03.111Z,19.48
2018-08-18T04:29:06.621Z,25.60
2018-08-18T04:34:10.024Z,25.25
2018-08-18T04:39:14.057Z,25.72
2018-08-18T04:44:17.497Z,26.35
2018-08-18T04:49:20.914Z,21.77
2018-08-18T04:54:24.338Z,25.25
2018-08-18T04:59:27.935Z,20.57
2018-08-18T05:04:31.335Z,20.23
2018-08-18T05:09:34.794Z,22.00
2018-08-18T05:14:38.221Z,22.73
2018-08-18T05:19:41.713Z,24.10
2018-08-18T05:24:45.182Z,22.62
2018-08-18T05:29:48.959Z,22.25
2018-08-18T05:34:52.393Z,22.37
2018-08-18T05:39:55.902Z,19.27
2018-08-18T05:45:00.743Z,25.62
2018-08-18T05:50:04.290Z,26.05
2018-08-18T05:55:07.764Z,24.95
2018-08-18T06:00:16.617Z,23.05
2018-08-18T06:05:20.540Z,27.13
2018-08-18T06:10:24.014Z,21.10
2018-08-18T06:15:27.502Z,23.25
2018-08-18T06:20:30.949Z,25.82
2018-08-18T06:25:34.518Z,21.75
2018-08-18T06:30:37.989Z,19.12
2018-08-18T06:35:41.481Z,20.35
2018-08-18T06:40:49.172Z,24.72
2018-08-18T06:45:52.608Z,23.80
2018-08-18T06:50:56.090Z,21.30
2018-08-18T06:56:00.694Z,18.80
2018-08-18T07:01:04.358Z,18.82
2018-08-18T07:06:09.944Z,18.48
2018-08-18T07:11:13.439Z,20.37
2018-08-18T07:16:16.920Z,18.05
2018-08-18T07:21:20.425Z,23.45
2018-08-18T07:26:24.041Z,18.70
2018-08-18T07:31:27.514Z,21.93
2018-08-18T07:36:30.995Z,20.20
2018-08-18T07:41:34.660Z,23.65
2018-08-18T07:51:54.689Z,18.77
2018-08-18T07:56:58.496Z,20.05
2018-08-18T08:02:01.999Z,18.50
2018-08-18T08:07:05.562Z,21.68
2018-08-18T08:12:09.112Z,21.35
2018-08-18T08:17:12.962Z,19.92
2018-08-18T08:22:16.472Z,20.48
2018-08-18T08:27:19.999Z,18.62
2018-08-18T08:32:23.526Z,18.42
2018-08-18T08:37:27.016Z,19.15
2018-08-18T08:42:30.545Z,18.02
2018-08-18T08:47:34.096Z,18.05
2018-08-18T08:52:42.834Z,15.72
2018-08-18T08:57:46.403Z,18.15
2018-08-18T09:02:49.994Z,17.05
2018-08-18T09:07:53.517Z,13.68
2018-08-18T09:12:57.064Z,13.85
2018-08-18T09:18:00.625Z,11.97
2018-08-18T09:23:04.158Z,24.18
2018-08-18T09:28:07.673Z,22.30
2018-08-18T09:33:11.165Z,95.85
2018-08-18T09:38:14.705Z,39.30
2018-08-18T09:43:25.388Z,19.57
2018-08-18T09:48:28.965Z,26.75
2018-08-18T09:53:32.435Z,18.95
2018-08-18T09:58:36.006Z,17.85
2018-08-18T10:03:39.435Z,85.77
2018-08-18T10:08:42.986Z,26.68
2018-08-18T10:13:46.496Z,47.53
2018-08-18T10:18:50.731Z,20.55
2018-08-18T10:23:54.422Z,23.45
2018-08-18T10:29:12.377Z,23.85
2018-08-18T10:34:16.702Z,17.25
2018-08-18T10:39:20.229Z,17.10
2018-08-18T10:44:24.529Z,17.32
2018-08-18T10:49:39.325Z,16.52
2018-08-18T10:54:43.241Z,13.65
2018-08-18T10:59:52.629Z,14.87
2018-08-18T11:04:56.181Z,12.98
2018-08-18T11:09:59.800Z,14.15
2018-08-18T11:15:03.854Z,12.33
2018-08-18T11:20:12.835Z,15.23
2018-08-18T11:25:16.426Z,9.43
2018-08-18T11:30:21.232Z,14.80
2018-08-18T11:35:24.889Z,11.60
2018-08-18T11:40:28.441Z,10.10
2018-08-18T11:45:33.409Z,10.90
2018-08-18T11:50:37.031Z,11.95
2018-08-18T11:55:40.626Z,13.05
2018-08-18T12:00:46.497Z,10.85
2018-08-18T12:05:57.792Z,12.07
2018-08-18T12:11:03.118Z,9.15
2018-08-18T12:16:18.129Z,11.50
2018-08-18T12:21:21.699Z,11.65
2018-08-18T12:26:25.226Z,12.23
2018-08-18T12:31:29.218Z,9.80
2018-08-18T12:36:32.867Z,11.38
2018-08-18T12:41:36.329Z,9.43
2018-08-18T12:46:45.311Z,10.13
2018-08-18T12:51:48.833Z,10.35
2018-08-18T12:56:52.332Z,9.15
2018-08-18T13:01:55.838Z,10.35
2018-08-18T13:06:59.339Z,10.48
2018-08-18T13:12:02.846Z,9.15
2018-08-18T13:17:06.723Z,7.65
2018-08-18T13:22:10.225Z,8.78
2018-08-18T13:27:13.787Z,8.25
2018-08-18T13:32:17.381Z,8.48
2018-08-18T13:37:20.876Z,8.88
2018-08-18T13:42:25.436Z,7.65
2018-08-18T13:47:29.106Z,8.53
2018-08-18T13:52:37.784Z,7.33
2018-08-18T13:57:41.508Z,6.83
2018-08-18T14:02:45.719Z,8.80
2018-08-18T14:07:54.816Z,9.23
2018-08-18T14:13:02.966Z,8.18
2018-08-18T14:18:11.011Z,8.63
2018-08-18T14:23:14.494Z,7.83
2018-08-18T14:28:17.965Z,9.53
2018-08-18T14:33:21.413Z,7.78
2018-08-18T14:38:24.916Z,7.42
2018-08-18T14:43:33.884Z,6.47
2018-08-18T14:48:37.409Z,7.53
2018-08-18T14:53:41.901Z,7.37
2018-08-18T14:58:45.417Z,6.78
2018-08-18T15:03:49.022Z,5.67
2018-08-18T15:08:52.540Z,7.10
2018-08-18T15:13:56.014Z,7.62
2018-08-18T15:18:59.523Z,6.75
2018-08-18T15:24:03.111Z,7.15
2018-08-18T15:29:10.808Z,5.30
2018-08-18T15:34:14.389Z,7.28
2018-08-18T15:39:17.879Z,7.08
2018-08-18T15:44:21.387Z,6.37
2018-08-18T15:49:24.959Z,5.90
2018-08-18T15:54:28.506Z,5.30
2018-08-18T15:59:31.973Z,5.90
2018-08-18T16:04:35.569Z,6.37
2018-08-18T16:09:39.057Z,5.75
2018-08-18T16:14:42.862Z,6.10
2018-08-18T16:19:46.374Z,5.65
2018-08-18T16:24:49.859Z,4.87
2018-08-18T16:29:53.323Z,4.55
2018-08-18T16:35:13.357Z,5.05
2018-08-18T16:40:16.858Z,6.80
2018-08-18T16:45:20.321Z,6.30
2018-08-18T16:50:23.815Z,6.03
2018-08-18T16:55:28.928Z,5.37
2018-08-18T17:00:32.632Z,5.53
2018-08-18T17:05:36.158Z,5.50
2018-08-18T17:10:39.593Z,4.97
2018-08-18T17:15:43.112Z,7.40
2018-08-18T17:20:54.990Z,4.47
2018-08-18T17:25:58.500Z,5.12
2018-08-18T17:31:02.981Z,5.53
2018-08-18T17:36:06.509Z,4.65
2018-08-18T17:41:10.043Z,5.50
2018-08-18T17:46:13.589Z,6.20
2018-08-18T17:51:17.101Z,5.28
2018-08-18T17:56:20.613Z,6.05
2018-08-18T18:01:24.161Z,5.05
2018-08-18T18:06:27.795Z,5.45
2018-08-18T18:11:31.200Z,5.45
2018-08-18T18:16:34.704Z,5.72
2018-08-18T18:21:38.338Z,5.15
2018-08-18T18:26:45.593Z,5.45
2018-08-18T18:31:49.110Z,5.60
2018-08-18T18:36:52.648Z,5.67
2018-08-18T18:41:56.120Z,5.42
2018-08-18T18:46:59.628Z,5.37
2018-08-18T18:52:03.266Z,5.30
2018-08-18T18:57:06.859Z,5.72
2018-08-18T19:02:10.485Z,6.97
2018-08-18T19:07:14.028Z,5.70
2018-08-18T19:12:17.743Z,5.97
2018-08-18T19:17:21.284Z,6.33
2018-08-18T19:22:24.813Z,6.15
2018-08-18T19:27:28.342Z,5.20
2018-08-18T19:32:31.928Z,5.92
2018-08-18T19:37:39.620Z,6.17
2018-08-18T19:42:43.180Z,6.55
2018-08-18T19:47:46.756Z,6.60
2018-08-18T19:52:56.366Z,6.30
2018-08-18T19:57:59.935Z,6.55
2018-08-18T20:03:06.060Z,6.37
2018-08-18T20:08:09.782Z,7.75
2018-08-18T20:13:14.348Z,6.95
2018-08-18T20:18:18.092Z,7.17
2018-08-18T20:23:21.957Z,6.60
2018-08-18T20:28:25.458Z,7.28
2018-08-18T20:33:28.946Z,6.87
2018-08-18T20:38:47.052Z,7.72
2018-08-18T20:43:50.677Z,7.30
2018-08-18T20:48:54.244Z,7.65
2018-08-18T20:53:57.749Z,8.80
2018-08-18T20:59:02.182Z,7.55
2018-08-18T21:04:05.806Z,7.17
2018-08-18T21:09:24.365Z,7.00
2018-08-18T21:14:29.064Z,6.28
2018-08-18T21:19:33.192Z,6.20
2018-08-18T21:24:36.692Z,6.70
2018-08-18T21:29:40.157Z,6.90
2018-08-18T21:34:47.973Z,6.85
2018-08-18T21:39:52.072Z,7.03
2018-08-18T21:44:55.596Z,8.18
2018-08-18T21:49:59.104Z,9.45
2018-08-18T21:55:02.641Z,8.95
2018-08-18T22:00:06.555Z,8.20
2018-08-18T22:05:11.868Z,9.88
2018-08-18T22:10:15.382Z,8.33
2018-08-18T22:15:19.867Z,8.23
2018-08-18T22:20:24.137Z,8.35
2018-08-18T22:25:27.681Z,8.20
2018-08-18T22:30:31.207Z,7.00
2018-08-18T22:35:35.310Z,7.92
2018-08-18T22:40:38.822Z,7.85
2018-08-18T22:45:42.319Z,7.53
2018-08-18T22:50:45.785Z,7.90
2018-08-18T22:55:49.290Z,8.50
2018-08-18T23:00:56.434Z,6.90
2018-08-18T23:06:00.004Z,7.60
2018-08-18T23:11:03.535Z,7.55
2018-08-18T23:16:07.107Z,7.75
2018-08-18T23:21:14.861Z,7.20
2018-08-18T23:26:18.366Z,8.18
2018-08-18T23:31:21.842Z,8.18
2018-08-18T23:36:25.404Z,8.28
2018-08-18T23:41:28.884Z,7.30
2018-08-18T23:46:32.330Z,8.10
2018-08-18T23:51:41.054Z,7.80
2018-08-18T23:56:44.532Z,8.60
